Time;durP1;ratioP1;P1;durP2;ratioP2;P2;SDS_P1;SDS_P2;PMS_P1;PMS_P2;Temp;Humidity;BMP_temperature;BMP_pressure;BME280_temperature;BME280_humidity;BME280_pressure;Samples;Min_cycle;Max_cycle;Signal;HPM_P1;HPM_P2
2022/07/08 00:01:44;;;;;;;18.60;12.18;;;;;;;22.59;83.34;99693.47;5122537;27;20211;-73
2022/07/08 00:04:09;;;;;;;17.48;13.05;;;;;;;22.69;83.18;99700.94;5123885;27;20216;-73
2022/07/08 00:06:35;;;;;;;16.52;12.30;;;;;;;22.68;83.35;99683.91;5122874;27;20467;-73
2022/07/08 00:09:01;;;;;;;16.98;12.65;;;;;;;22.63;83.72;99691.91;5120128;27;20028;-76
2022/07/08 00:11:26;;;;;;;14.10;12.20;;;;;;;22.50;83.73;99674.16;5123622;27;20026;-76
2022/07/08 00:13:51;;;;;;;17.45;13.90;;;;;;;22.54;83.98;99690.69;5136374;27;20039;-74
2022/07/08 00:16:17;;;;;;;14.40;12.63;;;;;;;22.54;83.87;99690.69;5141667;27;20031;-75
2022/07/08 00:18:42;;;;;;;15.05;12.07;;;;;;;22.51;84.69;99685.75;5127412;27;20339;-73
2022/07/08 00:21:08;;;;;;;15.93;12.27;;;;;;;22.61;84.43;99691.34;5137805;27;20067;-73
2022/07/08 00:23:34;;;;;;;15.40;11.35;;;;;;;22.68;83.81;99689.31;5140390;27;20088;-73
2022/07/08 00:25:59;;;;;;;16.85;11.82;;;;;;;22.83;83.49;99688.81;5123120;28;20055;-73
2022/07/08 00:28:25;;;;;;;14.82;11.00;;;;;;;22.88;81.98;99691.59;5123334;28;20236;-73
2022/07/08 00:30:50;;;;;;;13.38;11.30;;;;;;;22.90;81.46;99690.31;5122171;28;20322;-73
2022/07/08 00:33:16;;;;;;;14.27;10.77;;;;;;;22.98;80.76;99690.97;5122648;28;20237;-73
2022/07/08 00:35:41;;;;;;;17.45;10.27;;;;;;;22.91;80.50;99691.94;5121829;28;20081;-73
2022/07/08 00:38:07;;;;;;;15.38;10.88;;;;;;;22.89;80.87;99680.56;5123543;28;20039;-73
2022/07/08 00:40:34;;;;;;;13.60;10.88;;;;;;;22.91;81.06;99674.94;5121430;28;20035;-73
2022/07/08 00:43:00;;;;;;;14.63;11.00;;;;;;;23.03;81.33;99686.47;5124757;28;20031;-73
2022/07/08 00:45:26;;;;;;;15.23;10.70;;;;;;;23.16;79.88;99672.66;5123628;28;20031;-73
2022/07/08 00:47:52;;;;;;;13.70;10.60;;;;;;;23.25;78.66;99686.56;5122318;28;20031;-73
2022/07/08 00:50:18;;;;;;;11.98;10.15;;;;;;;23.15;78.69;99675.59;5117980;28;20315;-73
2022/07/08 00:52:45;;;;;;;13.20;9.23;;;;;;;23.20;78.35;99681.91;5121518;28;20042;-73
2022/07/08 00:55:11;;;;;;;13.52;9.90;;;;;;;23.19;78.61;99672.16;5125812;28;20084;-73
2022/07/08 00:57:38;;;;;;;14.88;9.77;;;;;;;23.24;77.58;99680.34;5122378;28;20035;-73
2022/07/08 01:00:05;;;;;;;13.32;10.23;;;;;;;23.17;77.27;99677.00;5123337;27;20034;-73
2022/07/08 01:02:30;;;;;;;14.32;10.88;;;;;;;23.18;76.60;99669.69;5125084;28;20036;-73
2022/07/08 01:04:56;;;;;;;17.52;10.85;;;;;;;23.08;76.60;99673.06;5108119;27;20076;-73
2022/07/08 01:07:22;;;;;;;15.57;10.15;;;;;;;22.93;77.25;99676.31;5126801;27;20039;-73
2022/07/08 01:09:48;;;;;;;15.55;10.48;;;;;;;22.83;77.61;99676.13;5126810;27;20034;-73
2022/07/08 01:12:13;;;;;;;14.05;9.75;;;;;;;22.73;78.52;99677.78;5107845;27;20232;-73
2022/07/08 01:14:39;;;;;;;14.85;10.05;;;;;;;22.77;77.92;99677.06;5126662;27;20068;-74
2022/07/08 01:17:05;;;;;;;13.48;9.25;;;;;;;22.70;78.48;99676.41;5124239;28;20337;-76
2022/07/08 01:19:32;;;;;;;13.82;9.45;;;;;;;22.73;78.12;99678.63;5124262;27;20047;-76
2022/07/08 01:21:58;;;;;;;13.88;9.30;;;;;;;22.80;77.64;99667.69;5126026;27;20028;-75
2022/07/08 01:24:23;;;;;;;10.48;8.77;;;;;;;22.86;77.51;99675.63;5127834;27;20041;-75
2022/07/08 01:26:49;;;;;;;9.23;8.23;;;;;;;22.90;77.54;99671.41;5125489;27;20035;-76
2022/07/08 01:29:15;;;;;;;11.77;8.40;;;;;;;22.88;77.37;99672.69;5125818;27;20032;-75
2022/07/08 01:31:40;;;;;;;11.73;8.50;;;;;;;22.93;77.77;99670.09;5126411;27;20044;-75
2022/07/08 01:34:06;;;;;;;13.10;8.68;;;;;;;22.99;77.58;99671.00;5125044;27;20045;-75
2022/07/08 01:36:32;;;;;;;13.90;8.90;;;;;;;22.87;77.78;99673.75;5126732;27;20031;-73
2022/07/08 01:38:57;;;;;;;9.48;8.48;;;;;;;22.85;77.63;99670.47;5106851;27;20024;-74
2022/07/08 01:41:23;;;;;;;10.73;8.60;;;;;;;22.92;76.97;99668.47;5125697;27;20031;-75
2022/07/08 01:43:48;;;;;;;19.00;8.98;;;;;;;22.81;77.29;99669.31;5125408;27;20039;-75
2022/07/08 01:46:14;;;;;;;13.32;8.25;;;;;;;22.93;76.66;99670.94;5125429;27;20023;-76
2022/07/08 01:48:39;;;;;;;11.48;8.93;;;;;;;22.93;76.40;99665.53;5125853;27;20052;-75
2022/07/08 01:51:05;;;;;;;13.30;9.07;;;;;;;22.95;76.22;99667.97;5125992;27;20032;-76
2022/07/08 01:53:31;;;;;;;11.80;9.13;;;;;;;22.97;76.31;99671.25;5106784;27;20076;-75
2022/07/08 01:55:56;;;;;;;12.48;9.55;;;;;;;22.91;75.95;99658.72;5127902;27;20035;-75
2022/07/08 01:58:22;;;;;;;11.25;8.18;;;;;;;22.93;76.62;99667.41;5125147;27;20038;-75
2022/07/08 02:00:47;;;;;;;14.98;8.48;;;;;;;22.89;76.03;99669.78;5126209;27;20034;-75
2022/07/08 02:03:13;;;;;;;10.65;9.23;;;;;;;22.90;76.37;99671.41;5124889;27;20031;-75
2022/07/08 02:05:39;;;;;;;12.73;9.23;;;;;;;22.94;76.40;99669.03;5125577;27;20031;-75
2022/07/08 02:08:04;;;;;;;13.35;9.45;;;;;;;22.87;76.05;99671.06;5128244;27;20105;-76
2022/07/08 02:13:16;;;;;;;13.90;8.60;;;;;;;22.94;76.53;99679.84;5125061;27;20031;-75
2022/07/08 02:15:42;;;;;;;17.42;10.10;;;;;;;22.99;76.29;99682.63;5124922;27;20190;-75
2022/07/08 02:18:07;;;;;;;12.98;8.93;;;;;;;23.02;76.86;99682.13;5123890;27;20039;-75
2022/07/08 02:20:33;;;;;;;11.02;9.30;;;;;;;22.88;76.81;99676.22;5124835;27;20072;-76
2022/07/08 02:22:58;;;;;;;10.60;8.93;;;;;;;22.75;77.47;99683.75;5125054;27;20232;-75
2022/07/08 02:25:24;;;;;;;16.63;10.05;;;;;;;22.77;78.53;99687.03;5123499;27;20317;-76
2022/07/08 02:27:49;;;;;;;15.35;9.23;;;;;;;22.78;78.66;99683.28;5124635;27;20310;-75
2022/07/08 02:30:15;;;;;;;11.32;9.52;;;;;;;22.86;78.72;99691.00;5101819;28;20340;-75
2022/07/08 02:32:40;;;;;;;15.63;10.50;;;;;;;22.85;77.77;99692.06;5103734;28;20088;-75
2022/07/08 02:35:07;;;;;;;11.48;10.02;;;;;;;22.85;78.42;99686.69;5104487;28;20038;-76
2022/07/08 02:37:32;;;;;;;10.98;9.50;;;;;;;22.84;78.97;99690.44;5103936;28;20044;-75
2022/07/08 02:39:58;;;;;;;10.95;9.15;;;;;;;22.87;78.23;99706.16;5104428;28;20332;-75
2022/07/08 02:42:24;;;;;;;13.55;9.93;;;;;;;22.82;77.28;99701.47;5104238;28;20032;-75
2022/07/08 02:44:49;;;;;;;13.05;9.13;;;;;;;22.86;77.77;99713.44;5103882;28;20020;-75
2022/07/08 02:47:15;;;;;;;16.58;9.57;;;;;;;22.80;77.65;99710.88;5103398;28;20027;-76
2022/07/08 02:49:40;;;;;;;13.73;9.50;;;;;;;22.69;78.41;99717.94;5103707;28;20018;-75
2022/07/08 02:52:06;;;;;;;13.00;9.93;;;;;;;22.61;79.06;99716.44;5104802;28;20050;-75
2022/07/08 02:54:32;;;;;;;14.75;9.38;;;;;;;22.63;79.69;99718.91;5101524;28;20059;-75
2022/07/08 02:56:57;;;;;;;15.15;10.32;;;;;;;22.60;79.06;99714.81;5104107;28;20036;-76
2022/07/08 02:59:23;;;;;;;14.40;9.73;;;;;;;22.68;78.85;99713.59;5109045;28;20221;-75
2022/07/08 03:01:48;;;;;;;12.95;10.02;;;;;;;22.65;78.81;99711.38;5122492;28;20034;-75
2022/07/08 03:04:14;;;;;;;13.63;9.77;;;;;;;22.76;77.68;99718.63;5117459;28;20043;-75
2022/07/08 03:06:39;;;;;;;15.13;9.73;;;;;;;22.70;77.21;99716.88;5103302;28;20043;-75
2022/07/08 03:09:05;;;;;;;15.95;11.00;;;;;;;22.72;76.20;99717.47;5103322;28;20382;-75
2022/07/08 03:11:30;;;;;;;17.05;10.18;;;;;;;22.55;76.45;99722.81;5104116;28;20044;-75
2022/07/08 03:13:56;;;;;;;15.40;9.90;;;;;;;22.56;76.17;99720.94;5103702;28;20036;-76
2022/07/08 03:16:21;;;;;;;12.60;8.93;;;;;;;22.35;76.38;99708.94;5103918;28;20102;-75
2022/07/08 03:18:47;;;;;;;14.75;8.75;;;;;;;22.34;76.60;99726.16;5103363;28;20040;-76
2022/07/08 03:21:12;;;;;;;12.45;8.50;;;;;;;22.41;76.03;99726.84;5102802;28;20024;-75
2022/07/08 03:23:38;;;;;;;10.63;8.95;;;;;;;22.36;76.87;99731.31;5104710;28;20039;-75
2022/07/08 03:26:04;;;;;;;12.07;9.25;;;;;;;22.41;76.83;99731.44;5102396;28;20020;-75
2022/07/08 03:28:29;;;;;;;12.95;9.75;;;;;;;22.46;76.81;99729.66;5104331;28;20091;-75
2022/07/08 03:30:55;;;;;;;13.68;9.48;;;;;;;22.47;77.24;99734.00;5112826;27;20032;-76
2022/07/08 03:33:21;;;;;;;13.52;9.60;;;;;;;22.46;77.68;99737.75;5121848;28;20073;-75
2022/07/08 03:35:46;;;;;;;12.43;9.07;;;;;;;22.57;76.14;99726.09;5121895;27;20023;-75
2022/07/08 03:38:12;;;;;;;12.38;9.35;;;;;;;22.56;77.01;99732.53;5124609;27;20039;-75
2022/07/08 03:43:21;;;;;;;;;;;;;;;22.54;78.02;99728.44;5122836;27;20089;-75
2022/07/08 03:45:47;;;;;;;15.82;9.82;;;;;;;22.53;78.85;99724.13;5122227;27;19911;-76
2022/07/08 03:48:13;;;;;;;15.43;10.20;;;;;;;22.59;78.80;99729.38;5124430;27;20036;-75
2022/07/08 03:50:39;;;;;;;16.02;10.85;;;;;;;22.60;78.43;99727.50;5122990;27;20050;-75
2022/07/08 03:53:04;;;;;;;17.25;10.88;;;;;;;22.50;80.27;99727.28;5123630;27;20035;-75
2022/07/08 03:55:30;;;;;;;19.20;10.50;;;;;;;22.37;81.30;99724.88;5123647;27;20039;-75
2022/07/08 03:57:57;;;;;;;24.50;14.30;;;;;;;22.47;82.97;99736.69;5123903;27;20039;-75
2022/07/08 04:00:23;;;;;;;24.73;16.60;;;;;;;22.52;84.25;99731.38;5124210;27;20034;-75
2022/07/08 04:02:49;;;;;;;29.70;18.75;;;;;;;22.68;83.65;99737.06;5124314;27;20115;-75
2022/07/08 04:05:14;;;;;;;33.78;19.80;;;;;;;22.77;82.41;99732.94;5104212;27;20313;-75
2022/07/08 04:07:41;;;;;;;28.95;18.30;;;;;;;22.74;82.07;99728.84;5123943;27;20045;-75
2022/07/08 04:10:07;;;;;;;26.10;17.13;;;;;;;22.80;82.09;99737.88;5122683;27;20080;-75
2022/07/08 04:12:33;;;;;;;22.17;17.13;;;;;;;22.79;82.60;99738.91;5104063;28;20027;-75
2022/07/08 04:14:59;;;;;;;22.88;17.30;;;;;;;22.95;82.34;99730.09;5123086;27;20210;-75
2022/07/08 04:17:25;;;;;;;25.05;17.73;;;;;;;23.09;81.91;99727.91;5122877;27;20324;-75
2022/07/08 04:19:50;;;;;;;24.33;17.05;;;;;;;23.31;80.68;99727.97;5104402;27;20035;-76
2022/07/08 04:22:16;;;;;;;29.40;18.35;;;;;;;23.32;80.32;99716.13;5124294;27;20095;-76
2022/07/08 04:24:41;;;;;;;22.88;16.45;;;;;;;23.35;80.43;99721.84;5124271;27;20026;-75
2022/07/08 04:27:07;;;;;;;23.77;16.90;;;;;;;23.76;77.94;99717.91;5123721;27;20030;-76
2022/07/08 04:29:33;;;;;;;19.95;16.00;;;;;;;23.94;77.19;99724.13;5121756;27;20054;-75
2022/07/08 04:31:58;;;;;;;28.02;16.20;;;;;;;23.98;77.29;99726.06;5123849;28;20047;-75
2022/07/08 04:34:24;;;;;;;21.95;15.75;;;;;;;24.13;76.35;99720.88;5121639;27;20042;-75
2022/07/08 04:36:49;;;;;;;20.42;15.55;;;;;;;24.16;76.58;99717.66;5123145;28;20026;-75
2022/07/08 04:39:15;;;;;;;27.58;14.93;;;;;;;24.34;74.00;99723.84;5103944;28;20023;-73
2022/07/08 04:41:40;;;;;;;19.55;14.27;;;;;;;24.43;74.18;99730.44;5123242;28;20027;-73
2022/07/08 04:44:06;;;;;;;22.02;13.23;;;;;;;24.61;72.58;99729.31;5125939;28;20043;-73
2022/07/08 04:46:31;;;;;;;18.88;13.75;;;;;;;24.60;71.25;99700.59;5123177;28;20027;-73
2022/07/08 04:48:57;;;;;;;20.13;14.38;;;;;;;24.54;72.94;99728.69;5123180;28;20096;-75
2022/07/08 04:51:23;;;;;;;19.23;14.48;;;;;;;24.53;72.72;99730.56;5104299;28;20035;-76
2022/07/08 04:53:49;;;;;;;21.27;14.50;;;;;;;24.45;73.56;99720.19;5121194;28;20309;-75
2022/07/08 04:56:15;;;;;;;18.80;14.23;;;;;;;24.36;73.94;99727.13;5120750;28;20024;-73
2022/07/08 04:58:40;;;;;;;19.08;14.93;;;;;;;24.46;74.57;99729.94;5122934;28;20027;-73
2022/07/08 05:01:06;;;;;;;24.45;16.05;;;;;;;24.49;73.54;99732.97;5121314;28;20094;-73
2022/07/08 05:03:31;;;;;;;20.08;14.98;;;;;;;24.96;72.13;99740.50;5123340;28;20047;-73
2022/07/08 05:05:57;;;;;;;19.95;17.05;;;;;;;25.41;70.02;99736.59;5121377;28;20263;-73
2022/07/08 05:08:22;;;;;;;18.05;15.52;;;;;;;25.85;67.10;99730.97;5120668;28;20217;-73
2022/07/08 05:10:48;;;;;;;18.67;14.73;;;;;;;25.98;66.33;99725.91;5102725;28;20030;-73
2022/07/08 05:13:14;;;;;;;25.13;15.45;;;;;;;25.95;66.17;99731.03;5124133;28;20098;-73
2022/07/08 05:15:39;;;;;;;19.73;16.35;;;;;;;26.08;64.97;99733.31;5121184;28;20035;-76
2022/07/08 05:18:05;;;;;;;21.52;17.02;;;;;;;26.19;63.60;99734.16;5105818;28;20062;-73
2022/07/08 05:20:31;;;;;;;22.85;18.75;;;;;;;25.87;65.14;99743.19;5122909;28;20038;-73
2022/07/08 05:22:56;;;;;;;21.23;18.45;;;;;;;25.28;67.88;99747.88;5133021;28;20039;-73
2022/07/08 05:25:22;;;;;;;25.92;16.83;;;;;;;25.46;67.91;99747.50;5138796;28;20022;-73
2022/07/08 05:27:47;;;;;;;23.98;21.23;;;;;;;25.29;68.18;99750.34;5142383;28;20042;-73
2022/07/08 05:30:13;;;;;;;23.92;17.92;;;;;;;25.26;68.16;99750.84;5118118;28;20211;-73
2022/07/08 05:32:39;;;;;;;20.77;17.27;;;;;;;25.26;67.31;99753.56;5121874;28;20210;-73
2022/07/08 05:35:05;;;;;;;23.67;18.60;;;;;;;25.05;68.31;99751.75;5121554;28;20089;-73
2022/07/08 05:37:32;;;;;;;23.08;16.02;;;;;;;24.62;70.10;99748.00;5121754;28;20047;-75
2022/07/08 05:39:57;;;;;;;22.05;15.60;;;;;;;24.63;70.02;99749.63;5103477;28;20027;-73
2022/07/08 05:42:24;;;;;;;20.17;15.82;;;;;;;24.62;70.89;99744.47;5121709;28;20089;-75
2022/07/08 05:44:49;;;;;;;21.48;17.27;;;;;;;24.63;71.13;99748.81;5122527;28;20050;-73
2022/07/08 05:47:15;;;;;;;21.55;16.75;;;;;;;24.90;71.17;99744.22;5123999;28;20309;-75
2022/07/08 05:49:43;;;;;;;21.63;16.10;;;;;;;25.63;68.82;99750.88;5124947;28;20397;-73
2022/07/08 05:52:10;;;;;;;18.98;16.05;;;;;;;25.78;66.93;99756.44;5125363;27;20023;-72
2022/07/08 05:54:36;;;;;;;20.27;16.33;;;;;;;26.13;64.73;99748.78;5125047;28;20050;-72
2022/07/08 05:57:02;;;;;;;18.20;14.52;;;;;;;26.19;63.64;99766.72;5125057;28;20031;-73
2022/07/08 05:59:29;;;;;;;20.92;13.52;;;;;;;26.00;63.37;99750.03;5124915;28;20227;-73
2022/07/08 06:01:55;;;;;;;16.77;14.77;;;;;;;26.26;64.06;99761.88;5124988;28;20070;-73
2022/07/08 06:04:20;;;;;;;19.17;14.13;;;;;;;26.35;63.85;99763.84;5125285;28;20051;-73
2022/07/08 06:06:46;;;;;;;17.65;14.00;;;;;;;26.57;61.23;99760.94;5124926;28;20024;-73
2022/07/08 06:09:12;;;;;;;15.90;12.57;;;;;;;26.61;61.72;99751.19;5125514;28;20036;-73
2022/07/08 06:11:37;;;;;;;13.57;11.98;;;;;;;27.03;59.65;99764.63;5124873;28;20333;-73
2022/07/08 06:14:03;;;;;;;17.70;13.40;;;;;;;27.14;58.84;99761.94;5120279;28;20032;-73
2022/07/08 06:16:29;;;;;;;17.05;13.60;;;;;;;27.54;57.93;99761.13;5104951;28;20483;-73
2022/07/08 06:18:54;;;;;;;15.57;12.68;;;;;;;27.82;57.65;99760.59;5104085;28;20043;-73
2022/07/08 06:21:20;;;;;;;17.67;13.43;;;;;;;28.01;56.69;99755.38;5105467;28;20031;-73
2022/07/08 06:23:45;;;;;;;17.73;12.82;;;;;;;28.17;56.19;99750.72;5104391;28;20228;-73
2022/07/08 06:26:11;;;;;;;18.75;14.13;;;;;;;28.29;55.41;99743.09;5104360;28;20051;-73
2022/07/08 06:28:37;;;;;;;15.93;12.40;;;;;;;28.45;54.38;99741.94;5104492;28;20061;-74
2022/07/08 06:31:03;;;;;;;16.85;12.90;;;;;;;28.74;54.65;99752.13;5102737;28;20036;-72
2022/07/08 06:33:28;;;;;;;15.30;12.27;;;;;;;28.47;54.50;99739.75;5103535;28;20038;-73
2022/07/08 06:35:54;;;;;;;13.55;11.98;;;;;;;28.90;52.66;99740.06;5102206;28;20047;-73
2022/07/08 06:38:19;;;;;;;20.27;12.82;;;;;;;28.75;54.33;99742.84;5103129;28;20039;-74
2022/07/08 06:40:45;;;;;;;16.77;12.98;;;;;;;29.04;53.23;99740.25;5102407;28;20024;-72
2022/07/08 06:43:10;;;;;;;19.40;12.85;;;;;;;29.37;51.70;99727.75;5105523;28;20276;-73
2022/07/08 06:45:36;;;;;;;18.20;13.25;;;;;;;29.06;53.05;99736.13;5103442;28;20028;-73
2022/07/08 06:48:02;;;;;;;20.38;13.02;;;;;;;29.14;53.01;99729.28;5105577;28;20195;-73
2022/07/08 06:50:29;;;;;;;19.05;12.38;;;;;;;29.60;51.69;99724.28;5102945;28;20361;-73
2022/07/08 06:52:55;;;;;;;16.25;12.70;;;;;;;29.86;50.87;99722.09;5112153;28;20066;-73
2022/07/08 06:55:21;;;;;;;16.60;13.38;;;;;;;29.93;50.38;99724.47;5116380;28;20058;-73
2022/07/08 06:57:47;;;;;;;16.02;11.57;;;;;;;29.90;50.31;99723.16;5107965;28;21047;-73
2022/07/08 07:00:13;;;;;;;14.20;12.70;;;;;;;30.06;49.77;99712.88;5102612;28;20016;-73
2022/07/08 07:02:39;;;;;;;14.50;11.50;;;;;;;29.77;49.64;99712.91;5104595;28;20099;-73
2022/07/08 07:05:06;;;;;;;16.70;11.98;;;;;;;29.95;48.57;99716.81;5105819;28;20351;-73
2022/07/08 07:07:32;;;;;;;18.45;11.63;;;;;;;29.86;49.53;99719.38;5103077;28;20040;-73
2022/07/08 07:09:58;;;;;;;18.75;12.00;;;;;;;30.13;49.13;99716.91;5106954;28;20036;-73
2022/07/08 07:12:23;;;;;;;13.82;11.75;;;;;;;30.49;47.02;99717.28;5105225;28;20215;-73
2022/07/08 07:14:49;;;;;;;15.45;12.60;;;;;;;30.61;46.78;99721.53;5104393;28;20031;-74
2022/07/08 07:17:19;;;;;;;19.45;13.05;;;;;;;30.69;47.05;99710.75;5104467;28;20253;-73
2022/07/08 07:19:46;;;;;;;11.50;9.57;;;;;;;30.96;44.95;99710.06;5104600;28;20039;-73
2022/07/08 07:22:11;;;;;;;13.73;10.52;;;;;;;31.29;44.53;99707.41;5104207;28;20043;-73
2022/07/08 07:24:38;;;;;;;12.13;9.82;;;;;;;31.24;43.63;99696.53;5104841;28;20341;-74
2022/07/08 07:27:04;;;;;;;15.60;9.68;;;;;;;30.78;44.16;99675.34;5105019;28;20059;-74
2022/07/08 07:29:29;;;;;;;14.52;9.95;;;;;;;30.72;44.40;99692.94;5104833;28;20030;-74
2022/07/08 07:31:55;;;;;;;13.13;9.57;;;;;;;30.60;45.70;99704.31;5124457;27;20047;-74
2022/07/08 07:34:20;;;;;;;12.85;9.70;;;;;;;30.44;45.87;99700.97;5124362;27;20025;-73
2022/07/08 07:36:46;;;;;;;12.73;8.82;;;;;;;30.03;46.74;99702.56;5126638;27;20039;-73
2022/07/08 07:39:12;;;;;;;12.45;9.15;;;;;;;30.39;46.04;99692.84;5123773;27;20026;-74
2022/07/08 07:41:38;;;;;;;13.80;9.75;;;;;;;30.88;44.86;99690.78;5126792;27;20046;-73
2022/07/08 07:44:04;;;;;;;12.95;8.75;;;;;;;30.83;44.76;99678.00;5127541;27;20035;-73
2022/07/08 07:46:30;;;;;;;13.48;10.02;;;;;;;30.58;45.40;99689.28;5123536;27;20062;-73
2022/07/08 07:48:56;;;;;;;10.23;8.60;;;;;;;30.68;45.48;99691.91;5125755;27;20064;-73
2022/07/08 07:51:22;;;;;;;9.50;8.25;;;;;;;30.78;45.92;99691.75;5123893;27;20035;-73
2022/07/08 07:53:48;;;;;;;11.35;8.88;;;;;;;30.88;45.37;99680.66;5103932;27;20332;-73
2022/07/08 07:56:14;;;;;;;13.77;9.73;;;;;;;30.88;44.31;99686.13;5123798;27;20256;-73
2022/07/08 07:58:39;;;;;;;12.27;9.93;;;;;;;30.48;45.32;99655.53;5124105;27;20248;-73
2022/07/08 08:01:05;;;;;;;11.52;8.45;;;;;;;30.60;45.40;99681.66;5103259;28;20039;-73
2022/07/08 08:03:31;;;;;;;9.75;8.57;;;;;;;30.91;45.02;99679.25;5125518;27;20039;-72
2022/07/08 08:05:57;;;;;;;10.32;7.75;;;;;;;31.21;43.98;99675.22;5122939;27;20024;-73
2022/07/08 08:08:24;;;;;;;8.82;7.40;;;;;;;31.51;42.54;99673.91;5121844;27;20193;-73
2022/07/08 08:10:51;;;;;;;9.98;8.02;;;;;;;31.14;43.59;99675.59;5124369;27;20044;-73
2022/07/08 08:13:16;;;;;;;10.88;7.70;;;;;;;31.35;43.04;99673.38;5121846;27;20317;-73
2022/07/08 08:15:42;;;;;;;9.32;8.00;;;;;;;31.41;42.25;99669.44;5123900;27;20053;-73
2022/07/08 08:18:07;;;;;;;9.50;7.65;;;;;;;31.72;41.46;99673.25;5127627;27;20038;-73
2022/07/08 08:20:33;;;;;;;9.32;8.35;;;;;;;31.54;42.15;99671.38;5121628;27;20044;-73
2022/07/08 08:22:58;;;;;;;11.15;7.50;;;;;;;31.77;41.38;99671.53;5123504;27;20030;-73
2022/07/08 08:25:24;;;;;;;7.38;6.68;;;;;;;32.22;40.62;99672.50;5121756;28;20046;-73
2022/07/08 08:27:50;;;;;;;8.43;6.85;;;;;;;32.50;39.63;99670.56;5124525;27;20027;-73
2022/07/08 08:30:17;;;;;;;7.38;6.07;;;;;;;32.40;38.13;99668.06;5103440;28;20195;-73
2022/07/08 08:32:42;;;;;;;11.30;6.63;;;;;;;32.29;39.04;99657.31;5090558;28;20053;-72
2022/07/08 08:35:09;;;;;;;11.82;6.65;;;;;;;32.10;39.58;99656.59;5091012;28;20249;-73
2022/07/08 08:37:35;;;;;;;7.13;5.65;;;;;;;32.34;38.64;99654.47;5089616;28;20032;-73
2022/07/08 08:40:21;;;;;;;6.32;5.15;;;;;;;32.46;38.23;99648.47;5090122;28;20121;-72
2022/07/08 08:42:47;;;;;;;7.07;6.13;;;;;;;32.16;37.83;99644.41;5089741;28;20024;-73
2022/07/08 08:45:12;;;;;;;6.05;5.45;;;;;;;31.57;39.49;99662.56;5092609;28;20274;-72
2022/07/08 08:47:38;;;;;;;6.90;5.38;;;;;;;30.34;40.78;99657.38;5090360;28;20044;-73
2022/07/08 08:52:56;;;;;;;11.25;6.50;;;;;;;30.86;40.93;99647.34;5091386;28;20082;-73
2022/07/08 08:55:26;;;;;;;5.97;5.38;;;;;;;31.05;40.20;99637.19;5089917;28;20048;-72
2022/07/08 08:57:57;;;;;;;6.70;6.00;;;;;;;30.74;41.51;99645.06;5090350;28;20042;-72
2022/07/08 09:00:24;;;;;;;6.93;6.22;;;;;;;30.28;41.33;99647.63;5090549;28;20036;-72
2022/07/08 09:02:49;;;;;;;9.82;6.20;;;;;;;30.66;42.76;99642.19;5092693;28;20036;-73
2022/07/08 09:05:15;;;;;;;6.18;5.57;;;;;;;30.65;42.64;99637.84;5090584;28;20036;-73
2022/07/08 09:07:41;;;;;;;8.30;6.15;;;;;;;31.02;42.73;99620.56;5090940;28;20229;-72
2022/07/08 09:10:08;;;;;;;7.97;6.30;;;;;;;31.70;39.88;99614.44;5093169;28;20044;-73
2022/07/08 09:12:33;;;;;;;7.78;6.38;;;;;;;31.74;40.70;99609.97;5091314;28;20328;-72
2022/07/08 09:15:00;;;;;;;9.48;6.18;;;;;;;31.86;40.50;99623.16;5093952;28;20036;-73
2022/07/08 09:17:26;;;;;;;6.70;6.00;;;;;;;32.12;39.79;99628.91;5097374;28;20110;-73
2022/07/08 09:19:52;;;;;;;7.90;6.20;;;;;;;31.34;40.43;99626.03;5099762;28;20102;-73
2022/07/08 09:22:21;;;;;;;9.85;6.47;;;;;;;31.07;41.00;99618.53;5099890;28;20286;-73
2022/07/08 09:24:47;;;;;;;8.48;5.95;;;;;;;31.37;40.48;99621.91;5100910;28;20055;-73
2022/07/08 09:27:12;;;;;;;7.97;6.35;;;;;;;31.56;39.50;99621.81;5101725;28;20028;-73
2022/07/08 09:29:58;;;;;;;9.48;5.95;;;;;;;31.87;38.58;99619.28;5101768;28;20036;-73
2022/07/08 09:32:24;;;;;;;8.38;6.18;;;;;;;31.66;39.43;99597.78;5102748;28;20044;-73
2022/07/08 09:34:50;;;;;;;6.55;5.65;;;;;;;31.26;39.58;99615.81;5103387;28;20348;-73
2022/07/08 09:37:18;;;;;;;6.07;5.47;;;;;;;30.71;39.35;99601.94;5103132;28;20075;-72
2022/07/08 09:39:44;;;;;;;7.13;4.50;;;;;;;30.39;40.12;99608.16;5103740;28;20086;-72
2022/07/08 09:42:11;;;;;;;5.72;5.13;;;;;;;30.57;39.94;99608.44;5102870;28;20044;-72
2022/07/08 09:44:37;;;;;;;6.60;5.03;;;;;;;30.79;39.03;99597.72;5102948;28;20036;-73
2022/07/08 09:47:15;;;;;;;5.90;5.03;;;;;;;30.86;38.30;99597.31;5103026;28;20072;-73
2022/07/08 09:49:43;;;;;;;9.45;4.55;;;;;;;30.77;37.81;99598.00;5101975;28;20071;-73
2022/07/08 09:52:10;;;;;;;5.88;3.75;;;;;;;29.91;38.28;99610.13;5102878;28;20028;-72
2022/07/08 09:54:36;;;;;;;7.60;3.55;;;;;;;29.62;38.05;99606.66;5102497;28;20085;-72
2022/07/08 09:57:08;;;;;;;5.95;3.72;;;;;;;29.60;38.50;99604.22;5103087;28;20043;-72
2022/07/08 09:59:36;;;;;;;7.00;3.83;;;;;;;29.52;37.70;99605.69;5102155;28;20087;-73
2022/07/08 10:02:03;;;;;;;6.88;4.00;;;;;;;29.60;37.10;99590.59;5103510;28;20032;-73
2022/07/08 10:04:28;;;;;;;6.85;4.13;;;;;;;29.70;40.07;99598.66;5102228;28;20036;-73
2022/07/08 10:06:56;;;;;;;4.75;3.17;;;;;;;29.35;38.20;99588.13;5102423;28;20103;-73
2022/07/08 10:09:23;;;;;;;4.30;3.85;;;;;;;29.43;38.12;99590.25;5095342;28;20036;-73
2022/07/08 10:11:50;;;;;;;5.22;3.70;;;;;;;29.50;39.52;99579.78;5093916;28;20028;-73
2022/07/08 10:14:16;;;;;;;5.68;3.72;;;;;;;29.52;37.39;99572.94;5096185;28;20289;-72
2022/07/08 10:16:45;;;;;;;5.20;3.10;;;;;;;29.29;39.85;99567.44;5094929;28;20345;-72
2022/07/08 10:19:19;;;;;;;3.85;3.40;;;;;;;29.12;41.57;99574.13;5095270;28;20027;-72
2022/07/08 10:21:50;;;;;;;4.88;3.60;;;;;;;29.51;40.76;99568.59;5096989;28;20325;-73
2022/07/08 10:24:22;;;;;;;4.70;3.40;;;;;;;29.73;39.12;99561.78;5095622;28;20338;-73
2022/07/08 10:26:48;;;;;;;3.80;3.40;;;;;;;29.81;37.26;99569.31;5094689;28;20215;-73
2022/07/08 10:29:13;;;;;;;4.03;3.25;;;;;;;29.65;37.43;99552.31;5097062;28;20087;-72
2022/07/08 10:31:51;;;;;;;5.38;3.42;;;;;;;29.28;39.48;99557.66;5118005;27;20043;-73
2022/07/08 10:34:19;;;;;;;4.00;3.60;;;;;;;28.98;40.73;99542.41;5126899;27;20042;-73
2022/07/08 10:36:50;;;;;;;7.97;4.13;;;;;;;29.13;41.44;99528.59;5125997;27;20352;-72
2022/07/08 10:39:30;;;;;;;4.40;3.92;;;;;;;29.48;40.86;99530.16;5128214;27;20039;-72
2022/07/08 10:41:56;;;;;;;4.13;3.72;;;;;;;29.76;41.23;99534.72;5126486;27;20086;-73
2022/07/08 10:44:42;;;;;;;3.70;3.40;;;;;;;29.94;41.01;99532.28;5126206;27;20202;-72
2022/07/08 10:47:15;;;;;;;5.57;3.33;;;;;;;29.85;40.65;99526.69;5112788;27;20043;-73
2022/07/08 10:49:46;;;;;;;5.68;3.88;;;;;;;29.98;39.59;99525.13;5109355;27;20056;-72
2022/07/08 10:52:15;;;;;;;5.38;3.22;;;;;;;29.86;38.13;99531.84;5124361;27;20040;-72
2022/07/08 10:54:42;;;;;;;6.03;2.83;;;;;;;29.59;38.16;99523.47;5122721;27;20032;-73
2022/07/08 10:57:22;;;;;;;3.97;2.80;;;;;;;29.74;39.01;99519.72;5125195;27;20073;-72
2022/07/08 11:00:20;;;;;;;4.18;3.00;;;;;;;29.51;38.98;99499.56;5125358;27;20333;-72
2022/07/08 11:02:48;;;;;;;3.70;2.92;;;;;;;29.64;39.66;99509.78;5075459;27;20039;-72
2022/07/08 11:05:33;;;;;;;12.52;3.78;;;;;;;29.74;40.13;99504.19;5125723;27;20034;-72
2022/07/08 11:08:20;;;;;;;4.25;3.17;;;;;;;29.98;39.00;99490.44;5124379;27;20094;-73
2022/07/08 11:10:47;;;;;;;5.00;3.33;;;;;;;30.11;38.53;99500.66;5124077;27;20054;-73
2022/07/08 11:13:12;;;;;;;6.25;3.67;;;;;;;30.20;40.33;99489.09;5125282;27;20038;-73
2022/07/08 11:15:38;;;;;;;3.60;3.30;;;;;;;29.99;39.84;99462.03;5107750;27;20332;-72
2022/07/08 11:18:04;;;;;;;8.00;3.65;;;;;;;29.80;39.54;99489.34;5118678;27;20265;-72
2022/07/08 11:20:31;;;;;;;3.65;3.20;;;;;;;29.77;38.64;99487.22;5137724;27;20042;-72
2022/07/08 11:22:57;;;;;;;3.88;3.10;;;;;;;29.48;38.90;99473.69;5142988;27;20075;-73
2022/07/08 11:25:23;;;;;;;3.13;2.83;;;;;;;29.80;38.42;99474.91;5120642;27;20038;-72
2022/07/08 11:27:50;;;;;;;5.25;3.17;;;;;;;29.55;37.61;99465.16;5110633;27;20034;-72
2022/07/08 11:30:17;;;;;;;5.13;3.28;;;;;;;29.43;40.35;99479.22;5122587;27;20032;-72